x

South Brooks (46132) Wave Buoy

2:00am - Wed 24th Aug 2016 All times are PDT. -7 hours from GMT.

  • Sig Wave height 4.6ft
  • Peak Period 6s
  • Wind
    22mph, 27mph gusts
  • Sea Temp 53°f
  • Air Temp 57°f
  • Sea Pressure 1024.1mb
  • South Brooks
  • South Brooks

More Historic Weather Station data

Upgrade to MSW Pro to gain access to the past 30 days of data for over 8000 Wavebouys and Weather Stations around the globe.

Join Pro

Comparision Forecast

View Surf forecast
   
Wed 08/24 2:00am 4.5ft 6s 22 27 mph 1024.1mb 53f 57f
1:00am 4.5ft 5s 22 27 mph 1024.2mb 53f 57f
12:00am 5ft 6s 22 27 mph 1024.6mb 53f 57f
Tue 08/23 11:00pm 5ft 5s 25 29 mph 1024.5mb 52f 57f
9:00pm 5ft 6s 25 29 mph 1024.1mb 53f 57f
8:00pm 5ft 6s 27 31 mph 1023.7mb 53f 56f
7:00pm 5ft 16s 27 31 mph 1023.4mb 53f 57f
5:00pm 5ft 5s 27 34 mph 1023.7mb 53f 57f
4:00pm 4.5ft 5s 27 29 mph 1024mb 53f 58f
3:00pm 4ft 14s 22 27 mph 1024.2mb 53f 57f
2:00pm 4.5ft 5s 22 29 mph 1024.3mb 53f 57f
1:00pm 4ft 16s 25 29 mph 1024.3mb 53f 58f
12:00pm 4ft 16s 20 25 mph 1024.7mb 53f 57f
11:00am 4ft 16s 18 22 mph 1024.6mb 53f 56f
10:00am 4ft 16s 20 25 mph 1024.2mb 53f 56f
9:00am 4.5ft 16s 22 27 mph 1023.7mb 52f 56f
7:00am 4.5ft 17s 16 20 mph 1023.4mb 52f 56f
6:00am 4ft 15s 20 22 mph 1022.6mb 52f 55f
5:00am 4.5ft 17s 22 27 mph 1021.9mb 52f 55f
4:00am 4ft 14s 18 22 mph 1022.1mb 52f 56f
3:00am 4.5ft 17s 20 22 mph 1022mb 52f 55f
2:00am 4.5ft 17s 20 22 mph 1021.9mb 52f 55f
1:00am 4.5ft 4s 22 25 mph 1022.1mb 52f 56f
12:00am 4.5ft 14s 22 27 mph 1021.9mb 53f 56f
Mon 08/22 11:00pm 4.5ft 7s 22 27 mph 1021.9mb 53f 56f
10:00pm 5ft 15s 22 25 mph 1021.7mb 53f 56f
9:00pm 5ft 7s 22 25 mph 1021.5mb 53f 56f
8:00pm 5ft 8s 22 27 mph 1020.8mb 53f 57f
7:00pm 4.5ft 7s 22 25 mph 1020.7mb 54f 58f
6:00pm 4.5ft 8s 20 25 mph 1020.5mb 54f 58f
5:00pm 4.5ft 8s 20 25 mph 1020.5mb 54f 58f
4:00pm 4ft 15s 18 22 mph 1020.7mb 55f 58f
3:00pm 4.5ft 8s 13 18 mph 1021mb 55f 58f
2:00pm 4.5ft 8s 11 13 mph 1021mb 55f 57f
1:00pm 4.5ft 14s 13 16 mph 1020.8mb 54f 57f
12:00pm 5ft 7s 13 16 mph 1020.5mb 54f 56f
11:00am 5ft 8s 11 13 mph 1020.5mb 54f 56f
10:00am 5ft 8s 9 11 mph 1020.1mb 53f 56f
9:00am 6ft 8s 11
mph
1019.7mb 53f 56f
8:00am 5ft 8s 11 13 mph 1019.3mb 52f 55f
7:00am 5.5ft 8s 11 13 mph 1018.8mb 51f 55f
6:00am 5.5ft 8s 11
mph
1018.1mb 51f 55f
5:00am 5ft 8s 11 13 mph 1017.7mb 51f 56f
4:00am 5.5ft 8s 18 20 mph 1017.3mb 51f 56f
3:00am 6ft 7s 13
mph
1017.4mb 51f 56f
2:00am 6ft 8s 16 20 mph 1017mb 52f 56f
1:00am 6ft 8s 13 16 mph 1017mb 52f 56f
12:00am 6ft 8s 13 16 mph 1017.2mb 52f 56f
Sun 08/21 11:00pm 6ft 8s 13 16 mph 1017.1mb 52f 56f
10:00pm 6ft 7s 16 18 mph 1017.1mb 52f 57f
9:00pm 6ft 8s 18 22 mph 1016.7mb 53f 57f
8:00pm 5.5ft 8s 18 20 mph 1016.3mb 53f 57f
7:00pm 6ft 8s 13 18 mph 1016mb 53f 58f
6:00pm 5.5ft 8s 13 16 mph 1016mb 53f 58f
5:00pm 6ft 7s 11 13 mph 1015.9mb 53f 57f
4:00pm 6ft 7s 13 16 mph 1015.8mb 53f 57f
3:00pm 5.5ft 7s 13 16 mph 1015.6mb 52f 57f
2:00pm 5ft 7s 18
mph
1015.4mb 52f 57f
1:00pm 5.5ft 7s 16 18 mph 1015.1mb 51f 57f
12:00pm 5ft 7s 18 20 mph 1014.7mb 52f 57f
11:00am 5.5ft 7s 16 18 mph 1014.2mb 52f 56f
10:00am 5.5ft 7s 16 18 mph 1013.9mb 52f 56f
9:00am 6ft 6s 16 18 mph 1013.4mb 52f 56f
8:00am 6ft 6s 20 25 mph 1012.9mb 52f 56f
7:00am 5.5ft 6s 20 22 mph 1012.1mb 51f 56f
6:00am 5ft 6s 18 20 mph 1011.7mb 51f 56f
5:00am 4.5ft 5s 16 18 mph 1011.7mb 51f 56f
4:00am 5ft 6s 16 20 mph 1011.9mb 51f 56f
3:00am 4.5ft 8s 16 18 mph 1011.9mb 50f 56f
2:00am 4.5ft 9s 18 22 mph 1012.4mb 50f 56f
1:00am 5ft 9s 18 22 mph 1012.6mb 50f 55f
12:00am 5ft 10s 18 20 mph 1012.9mb 50f 55f
Sat 08/20 11:00pm 5ft 9s 20 25 mph 1013.1mb 50f 55f
10:00pm  -   -  20
mph
- - -
9:00pm 5.5ft 9s 22 25 mph 1013.6mb 50f 55f
8:00pm 5.5ft 6s 25 29 mph 1013.6mb 51f 55f
7:00pm 5.5ft 9s 20 25 mph 1013.7mb 51f 55f
6:00pm 6ft 7s 22 25 mph 1014mb 51f 55f
5:00pm 6ft 10s 25 29 mph 1014.2mb 51f 55f
4:00pm 6ft 8s 25 29 mph 1014.7mb 52f 55f
3:00pm 6ft 10s 29 34 mph 1014.6mb 52f 55f
2:00pm 7ft 10s 27 31 mph 1015.1mb 52f 55f
1:00pm 7ft 11s 22 27 mph 1015.6mb 51f 55f
12:00pm 7ft 7s 25 31 mph 1015.6mb 51f 55f
11:00am 7ft 10s 27 31 mph 1015.7mb 51f 55f